FFT4211 KMCO-KEYW
Flight info
| Callsign | FFT4211 |
|---|---|
| Flight time | 0h 42m |
| Altitude | 30000 |
| Route | FSHUN4 PLUMR RSW/N0455F290 KARTR KRAKN1 |
| Aircraft | A21N/M-SDE2E3FGHIRWXY/LB1 |
Departure
| Time | 2026-04-23 04:51 |
|---|---|
| Airport | Orlando International Airport (KMCO) |
Arrival
| Time | 2026-04-23 05:33 |
|---|---|
| Airport | Key West International Airport (KEYW) |
| Time | Latitude | Longitude | Altitude | Speed | Heading |
|---|---|---|---|---|---|
| 2026-04-23 04:08 | 28.43499 | -81.31518 | 104 ft | 0 kts | 69° |
| 2026-04-23 04:29 | 28.43499 | -81.31520 | 105 ft | 4 kts | 68° |
| 2026-04-23 04:29 | 28.43493 | -81.31544 | 105 ft | 4 kts | 87° |
| 2026-04-23 04:29 | 28.43497 | -81.31572 | 102 ft | 4 kts | 119° |
| 2026-04-23 04:29 | 28.43509 | -81.31591 | 103 ft | 0 kts | 134° |
| 2026-04-23 04:32 | 28.43508 | -81.31590 | 103 ft | 0 kts | 134° |
| 2026-04-23 04:33 | 28.43505 | -81.31587 | 103 ft | 0 kts | 144° |
| 2026-04-23 04:33 | 28.43502 | -81.31586 | 103 ft | 0 kts | 155° |
| 2026-04-23 04:33 | 28.43468 | -81.31602 | 105 ft | 9 kts | 239° |
| 2026-04-23 04:33 | 28.43476 | -81.31641 | 105 ft | 5 kts | 298° |
| 2026-04-23 04:34 | 28.43494 | -81.31678 | 104 ft | 6 kts | 298° |
| 2026-04-23 04:34 | 28.43505 | -81.31706 | 105 ft | 0 kts | 280° |
| 2026-04-23 04:43 | 28.43505 | -81.31712 | 105 ft | 3 kts | 279° |
| 2026-04-23 04:43 | 28.43507 | -81.31747 | 106 ft | 6 kts | 270° |
| 2026-04-23 04:43 | 28.43489 | -81.31798 | 106 ft | 9 kts | 224° |
| 2026-04-23 04:44 | 28.43429 | -81.31868 | 105 ft | 15 kts | 227° |
| 2026-04-23 04:44 | 28.43400 | -81.31940 | 104 ft | 5 kts | 281° |
| 2026-04-23 04:44 | 28.43425 | -81.31973 | 105 ft | 7 kts | 323° |
| 2026-04-23 04:44 | 28.43481 | -81.31997 | 106 ft | 10 kts | 351° |
| 2026-04-23 04:45 | 28.43539 | -81.32002 | 108 ft | 6 kts | 1° |
| 2026-04-23 04:45 | 28.43577 | -81.32001 | 108 ft | 6 kts | 359° |
| 2026-04-23 04:45 | 28.43616 | -81.32000 | 109 ft | 6 kts | 2° |
| 2026-04-23 04:45 | 28.43656 | -81.31997 | 109 ft | 6 kts | 2° |
| 2026-04-23 04:46 | 28.43715 | -81.32001 | 110 ft | 11 kts | 355° |
| 2026-04-23 04:46 | 28.43797 | -81.32003 | 112 ft | 11 kts | 359° |
| 2026-04-23 04:46 | 28.43857 | -81.32004 | 112 ft | 7 kts | 0° |
| 2026-04-23 04:46 | 28.43891 | -81.32004 | 113 ft | 3 kts | 1° |
| 2026-04-23 04:47 | 28.43904 | -81.32003 | 110 ft | 1 kts | 1° |
| 2026-04-23 04:47 | 28.43910 | -81.32003 | 111 ft | 3 kts | 1° |
| 2026-04-23 04:47 | 28.43939 | -81.32002 | 113 ft | 4 kts | 0° |
| 2026-04-23 04:47 | 28.43957 | -81.32002 | 113 ft | 2 kts | 359° |
| 2026-04-23 04:48 | 28.43961 | -81.32003 | 113 ft | 0 kts | 359° |
| 2026-04-23 04:48 | 28.44014 | -81.32004 | 112 ft | 18 kts | 358° |
| 2026-04-23 04:49 | 28.44201 | -81.32006 | 112 ft | 36 kts | 360° |
| 2026-04-23 04:49 | 28.44473 | -81.32008 | 108 ft | 40 kts | 358° |
| 2026-04-23 04:49 | 28.44748 | -81.32023 | 104 ft | 39 kts | 342° |
| 2026-04-23 04:49 | 28.44824 | -81.32119 | 103 ft | 0 kts | 260° |
| 2026-04-23 04:50 | 28.44822 | -81.32134 | 103 ft | 6 kts | 260° |
| 2026-04-23 04:50 | 28.44789 | -81.32209 | 104 ft | 16 kts | 217° |
| 2026-04-23 04:50 | 28.44497 | -81.32227 | 107 ft | 75 kts | 178° |
| 2026-04-23 04:50 | 28.43753 | -81.32217 | 113 ft | 140 kts | 180° |
| 2026-04-23 04:51 | 28.42603 | -81.32200 | 215 ft | 180 kts | 176° |
| 2026-04-23 04:51 | 28.41268 | -81.32201 | 450 ft | 204 kts | 179° |
| 2026-04-23 04:51 | 28.39759 | -81.32153 | 771 ft | 231 kts | 177° |
| 2026-04-23 04:51 | 28.38078 | -81.32198 | 1693 ft | 246 kts | 180° |
| 2026-04-23 04:52 | 28.36370 | -81.32320 | 2958 ft | 248 kts | 180° |
| 2026-04-23 04:52 | 28.34618 | -81.32456 | 4035 ft | 258 kts | 181° |
| 2026-04-23 04:52 | 28.32838 | -81.32783 | 5066 ft | 269 kts | 195° |
| 2026-04-23 04:52 | 28.31046 | -81.33479 | 6204 ft | 274 kts | 201° |
| 2026-04-23 04:53 | 28.29259 | -81.34261 | 7396 ft | 276 kts | 202° |
| 2026-04-23 04:53 | 28.27459 | -81.35058 | 8562 ft | 280 kts | 202° |
| 2026-04-23 04:53 | 28.25624 | -81.35864 | 9713 ft | 285 kts | 202° |
| 2026-04-23 04:53 | 28.23740 | -81.36686 | 10622 ft | 299 kts | 202° |
| 2026-04-23 04:54 | 28.21699 | -81.37575 | 11068 ft | 329 kts | 202° |
| 2026-04-23 04:54 | 28.19464 | -81.38544 | 11454 ft | 358 kts | 202° |
| 2026-04-23 04:54 | 28.17051 | -81.39587 | 11852 ft | 384 kts | 202° |
| 2026-04-23 04:54 | 28.14500 | -81.40685 | 12517 ft | 398 kts | 202° |
| 2026-04-23 04:55 | 28.11880 | -81.41812 | 13410 ft | 405 kts | 202° |
| 2026-04-23 04:55 | 28.09225 | -81.42953 | 14307 ft | 411 kts | 203° |
| 2026-04-23 04:55 | 28.06544 | -81.44105 | 15181 ft | 415 kts | 203° |
| 2026-04-23 04:55 | 28.03826 | -81.45273 | 15993 ft | 419 kts | 203° |
| 2026-04-23 04:56 | 28.01088 | -81.46449 | 16791 ft | 423 kts | 204° |
| 2026-04-23 04:56 | 27.98318 | -81.47639 | 17570 ft | 428 kts | 204° |
| 2026-04-23 04:56 | 27.95521 | -81.48840 | 18298 ft | 432 kts | 204° |
| 2026-04-23 04:56 | 27.92727 | -81.50117 | 18889 ft | 434 kts | 208° |
| 2026-04-23 04:57 | 27.90140 | -81.51863 | 19463 ft | 433 kts | 218° |
| 2026-04-23 04:57 | 27.88523 | -81.53190 | 19841 ft | 434 kts | 220° |
| 2026-04-23 04:57 | 27.86110 | -81.55257 | 20381 ft | 436 kts | 220° |
| 2026-04-23 04:57 | 27.83691 | -81.57347 | 20926 ft | 439 kts | 220° |
| 2026-04-23 04:58 | 27.81252 | -81.59450 | 21444 ft | 442 kts | 220° |
| 2026-04-23 04:58 | 27.78798 | -81.61557 | 21925 ft | 444 kts | 220° |
| 2026-04-23 04:58 | 27.76325 | -81.63678 | 22439 ft | 447 kts | 220° |
| 2026-04-23 04:58 | 27.73822 | -81.65783 | 22903 ft | 451 kts | 218° |
| 2026-04-23 04:59 | 27.71117 | -81.67635 | 23321 ft | 459 kts | 210° |
| 2026-04-23 04:59 | 27.68126 | -81.68998 | 23751 ft | 468 kts | 201° |
| 2026-04-23 04:59 | 27.64920 | -81.69769 | 24109 ft | 476 kts | 192° |
| 2026-04-23 04:59 | 27.61608 | -81.70183 | 24492 ft | 479 kts | 189° |
| 2026-04-23 05:00 | 27.58286 | -81.70445 | 24976 ft | 478 kts | 187° |
| 2026-04-23 05:00 | 27.54966 | -81.70641 | 25474 ft | 477 kts | 187° |
| 2026-04-23 05:00 | 27.51661 | -81.70819 | 25909 ft | 475 kts | 187° |
| 2026-04-23 05:00 | 27.48362 | -81.71005 | 26314 ft | 474 kts | 187° |
| 2026-04-23 05:01 | 27.45108 | -81.71203 | 26731 ft | 473 kts | 188° |
| 2026-04-23 05:01 | 27.41824 | -81.71417 | 27175 ft | 472 kts | 188° |
| 2026-04-23 05:01 | 27.38544 | -81.71641 | 27620 ft | 471 kts | 188° |
| 2026-04-23 05:01 | 27.35281 | -81.71869 | 28052 ft | 470 kts | 188° |
| 2026-04-23 05:02 | 27.32020 | -81.72100 | 28469 ft | 469 kts | 189° |
| 2026-04-23 05:02 | 27.28763 | -81.72331 | 28864 ft | 468 kts | 189° |
| 2026-04-23 05:02 | 27.25518 | -81.72560 | 29276 ft | 467 kts | 189° |
| 2026-04-23 05:02 | 27.22275 | -81.72788 | 29702 ft | 466 kts | 189° |
| 2026-04-23 05:03 | 27.19048 | -81.73013 | 30098 ft | 465 kts | 189° |
| 2026-04-23 05:03 | 27.15798 | -81.73243 | 30178 ft | 471 kts | 189° |
| 2026-04-23 05:03 | 27.09152 | -81.73717 | 30178 ft | 485 kts | 189° |
| 2026-04-23 05:04 | 27.05758 | -81.73957 | 30304 ft | 486 kts | 189° |
| 2026-04-23 05:04 | 27.02441 | -81.74179 | 31248 ft | 470 kts | 190° |
| 2026-04-23 05:04 | 26.99221 | -81.74380 | 32127 ft | 456 kts | 190° |
| 2026-04-23 05:04 | 26.96087 | -81.74565 | 32929 ft | 444 kts | 191° |
| 2026-04-23 05:05 | 26.93041 | -81.74736 | 33643 ft | 433 kts | 191° |
| 2026-04-23 05:05 | 26.90070 | -81.74898 | 34291 ft | 423 kts | 192° |
| 2026-04-23 05:05 | 26.87156 | -81.75055 | 34799 ft | 415 kts | 192° |
| 2026-04-23 05:05 | 26.84327 | -81.75208 | 35237 ft | 408 kts | 192° |
| 2026-04-23 05:06 | 26.81508 | -81.75363 | 35618 ft | 403 kts | 192° |
| 2026-04-23 05:06 | 26.78725 | -81.75522 | 35945 ft | 398 kts | 192° |
| 2026-04-23 05:06 | 26.75970 | -81.75687 | 36205 ft | 395 kts | 192° |
| 2026-04-23 05:06 | 26.73224 | -81.75869 | 36406 ft | 392 kts | 193° |
| 2026-04-23 05:07 | 26.67785 | -81.76410 | 35497 ft | 396 kts | 194° |
| 2026-04-23 05:07 | 26.64967 | -81.76706 | 33931 ft | 414 kts | 194° |
| 2026-04-23 05:07 | 26.62052 | -81.76984 | 32372 ft | 425 kts | 193° |
| 2026-04-23 05:08 | 26.59087 | -81.77228 | 31187 ft | 428 kts | 192° |
| 2026-04-23 05:08 | 26.56129 | -81.77437 | 30274 ft | 423 kts | 193° |
| 2026-04-23 05:08 | 26.53147 | -81.77398 | 29424 ft | 446 kts | 181° |
| 2026-04-23 05:08 | 26.49990 | -81.76797 | 28985 ft | 472 kts | 175° |
| 2026-04-23 05:09 | 26.46744 | -81.76000 | 28869 ft | 479 kts | 174° |
| 2026-04-23 05:09 | 26.43493 | -81.75164 | 29083 ft | 481 kts | 174° |
| 2026-04-23 05:09 | 26.40282 | -81.74334 | 29348 ft | 479 kts | 174° |
| 2026-04-23 05:09 | 26.37035 | -81.73496 | 29614 ft | 478 kts | 174° |
| 2026-04-23 05:10 | 26.33795 | -81.72663 | 29868 ft | 477 kts | 174° |
| 2026-04-23 05:10 | 26.30564 | -81.71835 | 30119 ft | 477 kts | 175° |
| 2026-04-23 05:10 | 26.24116 | -81.70182 | 29371 ft | 472 kts | 175° |
| 2026-04-23 05:11 | 26.20917 | -81.69381 | 28319 ft | 469 kts | 176° |
| 2026-04-23 05:11 | 26.17741 | -81.68605 | 26792 ft | 468 kts | 175° |
| 2026-04-23 05:11 | 26.14548 | -81.67819 | 25129 ft | 470 kts | 174° |
| 2026-04-23 05:11 | 26.11345 | -81.67019 | 23391 ft | 474 kts | 173° |
| 2026-04-23 05:12 | 26.08123 | -81.66201 | 21641 ft | 476 kts | 172° |
| 2026-04-23 05:12 | 26.04896 | -81.65355 | 20931 ft | 479 kts | 171° |
| 2026-04-23 05:12 | 26.01653 | -81.64512 | 20662 ft | 477 kts | 171° |
| 2026-04-23 05:12 | 25.98433 | -81.63682 | 20426 ft | 473 kts | 171° |
| 2026-04-23 05:13 | 25.95227 | -81.62862 | 20194 ft | 471 kts | 171° |
| 2026-04-23 05:13 | 25.92039 | -81.62049 | 19960 ft | 469 kts | 171° |
| 2026-04-23 05:13 | 25.88900 | -81.61251 | 19723 ft | 468 kts | 171° |
| 2026-04-23 05:14 | 25.82580 | -81.59647 | 19249 ft | 464 kts | 171° |
| 2026-04-23 05:14 | 25.79440 | -81.58851 | 19015 ft | 462 kts | 170° |
| 2026-04-23 05:14 | 25.76307 | -81.58057 | 18782 ft | 461 kts | 170° |
| 2026-04-23 05:14 | 25.73188 | -81.57267 | 18553 ft | 459 kts | 170° |
| 2026-04-23 05:15 | 25.70076 | -81.56480 | 18285 ft | 458 kts | 170° |
| 2026-04-23 05:15 | 25.66973 | -81.55695 | 18009 ft | 457 kts | 170° |
| 2026-04-23 05:15 | 25.63875 | -81.54912 | 17757 ft | 455 kts | 170° |
| 2026-04-23 05:15 | 25.60791 | -81.54133 | 17504 ft | 454 kts | 170° |
| 2026-04-23 05:16 | 25.57714 | -81.53356 | 17245 ft | 452 kts | 170° |
| 2026-04-23 05:16 | 25.54656 | -81.52584 | 16987 ft | 451 kts | 170° |
| 2026-04-23 05:16 | 25.51581 | -81.51987 | 16731 ft | 446 kts | 178° |
| 2026-04-23 05:16 | 25.48509 | -81.52140 | 16478 ft | 438 kts | 194° |
| 2026-04-23 05:17 | 25.45623 | -81.53106 | 16238 ft | 433 kts | 204° |
| 2026-04-23 05:17 | 25.42839 | -81.54364 | 15993 ft | 431 kts | 206° |
| 2026-04-23 05:17 | 25.40119 | -81.55646 | 15754 ft | 430 kts | 206° |
| 2026-04-23 05:17 | 25.37370 | -81.56940 | 15497 ft | 429 kts | 206° |
| 2026-04-23 05:18 | 25.34622 | -81.58226 | 15223 ft | 426 kts | 206° |
| 2026-04-23 05:18 | 25.31912 | -81.59485 | 14605 ft | 419 kts | 206° |
| 2026-04-23 05:18 | 25.29233 | -81.60727 | 13906 ft | 416 kts | 206° |
| 2026-04-23 05:18 | 25.26581 | -81.61955 | 13159 ft | 411 kts | 205° |
| 2026-04-23 05:19 | 25.23956 | -81.63168 | 12461 ft | 406 kts | 206° |
| 2026-04-23 05:19 | 25.21365 | -81.64365 | 11866 ft | 399 kts | 205° |
| 2026-04-23 05:19 | 25.18874 | -81.65512 | 11758 ft | 376 kts | 206° |
| 2026-04-23 05:19 | 25.16527 | -81.66591 | 11695 ft | 355 kts | 205° |
| 2026-04-23 05:20 | 25.14304 | -81.67615 | 11578 ft | 338 kts | 205° |
| 2026-04-23 05:20 | 25.12186 | -81.68592 | 11431 ft | 322 kts | 206° |
| 2026-04-23 05:20 | 25.10164 | -81.69524 | 11287 ft | 308 kts | 207° |
| 2026-04-23 05:20 | 25.08231 | -81.70416 | 11129 ft | 294 kts | 207° |
| 2026-04-23 05:21 | 25.06377 | -81.71270 | 11011 ft | 284 kts | 207° |
| 2026-04-23 05:21 | 25.04579 | -81.72098 | 10749 ft | 279 kts | 207° |
| 2026-04-23 05:21 | 25.02783 | -81.72928 | 10359 ft | 280 kts | 206° |
| 2026-04-23 05:21 | 25.00979 | -81.73760 | 10061 ft | 285 kts | 205° |
| 2026-04-23 05:22 | 24.99117 | -81.74618 | 9689 ft | 293 kts | 206° |
| 2026-04-23 05:22 | 24.97240 | -81.75481 | 9339 ft | 291 kts | 205° |
| 2026-04-23 05:22 | 24.95382 | -81.76333 | 9038 ft | 289 kts | 206° |
| 2026-04-23 05:22 | 24.93527 | -81.77183 | 8732 ft | 288 kts | 205° |
| 2026-04-23 05:23 | 24.91691 | -81.78025 | 8467 ft | 282 kts | 205° |
| 2026-04-23 05:23 | 24.89917 | -81.78836 | 8266 ft | 271 kts | 204° |
| 2026-04-23 05:23 | 24.88219 | -81.79674 | 7967 ft | 263 kts | 211° |
| 2026-04-23 05:23 | 24.86663 | -81.80686 | 7691 ft | 256 kts | 214° |
| 2026-04-23 05:24 | 24.85198 | -81.81717 | 7430 ft | 252 kts | 216° |
| 2026-04-23 05:24 | 24.83732 | -81.82762 | 7159 ft | 251 kts | 214° |
| 2026-04-23 05:24 | 24.82266 | -81.83805 | 6892 ft | 251 kts | 215° |
| 2026-04-23 05:24 | 24.80802 | -81.84844 | 6627 ft | 249 kts | 215° |
| 2026-04-23 05:25 | 24.79351 | -81.85874 | 6362 ft | 248 kts | 214° |
| 2026-04-23 05:25 | 24.77947 | -81.86870 | 6089 ft | 248 kts | 214° |
| 2026-04-23 05:25 | 24.76501 | -81.87894 | 5828 ft | 247 kts | 213° |
| 2026-04-23 05:25 | 24.75056 | -81.88918 | 5566 ft | 247 kts | 213° |
| 2026-04-23 05:26 | 24.73609 | -81.89941 | 5304 ft | 248 kts | 212° |
| 2026-04-23 05:26 | 24.72157 | -81.90968 | 5045 ft | 248 kts | 212° |
| 2026-04-23 05:26 | 24.70702 | -81.91997 | 4783 ft | 248 kts | 212° |
| 2026-04-23 05:26 | 24.69248 | -81.93026 | 4508 ft | 249 kts | 210° |
| 2026-04-23 05:27 | 24.67794 | -81.94053 | 4247 ft | 248 kts | 208° |
| 2026-04-23 05:27 | 24.66336 | -81.95082 | 3981 ft | 247 kts | 210° |
| 2026-04-23 05:27 | 24.64894 | -81.96097 | 3731 ft | 244 kts | 208° |
| 2026-04-23 05:27 | 24.63360 | -81.96803 | 3409 ft | 235 kts | 184° |
| 2026-04-23 05:28 | 24.61750 | -81.96928 | 3085 ft | 231 kts | 176° |
| 2026-04-23 05:28 | 24.60141 | -81.96906 | 2864 ft | 233 kts | 175° |
| 2026-04-23 05:28 | 24.58542 | -81.96863 | 2627 ft | 232 kts | 172° |
| 2026-04-23 05:28 | 24.56993 | -81.96521 | 2371 ft | 223 kts | 149° |
| 2026-04-23 05:29 | 24.55848 | -81.95452 | 2135 ft | 216 kts | 119° |
| 2026-04-23 05:29 | 24.55399 | -81.93913 | 1919 ft | 213 kts | 95° |
| 2026-04-23 05:29 | 24.55362 | -81.92292 | 1747 ft | 207 kts | 89° |
| 2026-04-23 05:29 | 24.55399 | -81.90819 | 1786 ft | 178 kts | 89° |
| 2026-04-23 05:30 | 24.55436 | -81.89561 | 1637 ft | 153 kts | 89° |
| 2026-04-23 05:30 | 24.55462 | -81.88469 | 1486 ft | 131 kts | 89° |
| 2026-04-23 05:30 | 24.55480 | -81.87522 | 1512 ft | 127 kts | 89° |
| 2026-04-23 05:30 | 24.55497 | -81.86532 | 1473 ft | 127 kts | 91° |
| 2026-04-23 05:31 | 24.55511 | -81.85548 | 1491 ft | 135 kts | 90° |
| 2026-04-23 05:31 | 24.55523 | -81.84510 | 1196 ft | 137 kts | 90° |
| 2026-04-23 05:31 | 24.55535 | -81.83464 | 819 ft | 134 kts | 89° |
| 2026-04-23 05:31 | 24.55547 | -81.82487 | 542 ft | 124 kts | 89° |
| 2026-04-23 05:32 | 24.55563 | -81.81531 | 366 ft | 130 kts | 87° |
| 2026-04-23 05:32 | 24.55612 | -81.80558 | 287 ft | 125 kts | 86° |
| 2026-04-23 05:32 | 24.55609 | -81.79610 | 228 ft | 127 kts | 92° |
| 2026-04-23 05:32 | 24.55598 | -81.78616 | 207 ft | 128 kts | 92° |
| 2026-04-23 05:33 | 24.55596 | -81.77664 | 151 ft | 124 kts | 89° |
| 2026-04-23 05:33 | 24.55609 | -81.76723 | 50 ft | 122 kts | 89° |
| 2026-04-23 05:33 | 24.55615 | -81.75860 | 17 ft | 101 kts | 87° |
| 2026-04-23 05:33 | 24.55619 | -81.75326 | 16 ft | 28 kts | 92° |
| 2026-04-23 05:34 | 24.55618 | -81.75286 | 16 ft | 1 kts | 93° |
| 2026-04-23 05:34 | 24.55616 | -81.75274 | 16 ft | 2 kts | 98° |
| 2026-04-23 05:34 | 24.55609 | -81.75256 | 18 ft | 4 kts | 122° |
| 2026-04-23 05:34 | 24.55574 | -81.75241 | 16 ft | 7 kts | 177° |
| 2026-04-23 05:35 | 24.55536 | -81.75266 | 15 ft | 6 kts | 243° |
| 2026-04-23 05:35 | 24.55533 | -81.75312 | 15 ft | 6 kts | 271° |
| 2026-04-23 05:35 | 24.55533 | -81.75359 | 15 ft | 6 kts | 269° |
| 2026-04-23 05:35 | 24.55531 | -81.75411 | 15 ft | 7 kts | 267° |
| 2026-04-23 05:36 | 24.55511 | -81.75452 | 15 ft | 7 kts | 222° |
| 2026-04-23 05:36 | 24.55488 | -81.75487 | 15 ft | 6 kts | 237° |
| 2026-04-23 05:36 | 24.55459 | -81.75501 | 15 ft | 5 kts | 187° |
| 2026-04-23 05:36 | 24.55442 | -81.75501 | 15 ft | 0 kts | 179° |
| 2026-04-23 05:37 | 24.55438 | -81.75501 | 15 ft | 0 kts | 179° |
| 2026-04-23 05:37 | 24.55443 | -81.75501 | 15 ft | 1 kts | 179° |
| 2026-04-23 05:37 | 24.55439 | -81.75501 | 15 ft | 0 kts | 179° |